sensor_id;sensor_type;location;lat;lon;timestamp;temperature;humidity
14359;DHT22;7263;49.418;11.064;2023-04-03T00:01:45;3.30;99.90
14359;DHT22;7263;49.418;11.064;2023-04-03T00:04:14;2.90;99.90
14359;DHT22;7263;49.418;11.064;2023-04-03T00:06:41;3.30;99.90
14359;DHT22;7263;49.418;11.064;2023-04-03T00:09:07;3.30;99.90
14359;DHT22;7263;49.418;11.064;2023-04-03T00:11:34;3.20;99.90
14359;DHT22;7263;49.418;11.064;2023-04-03T00:14:02;3.20;99.90
14359;DHT22;7263;49.418;11.064;2023-04-03T00:18:59;3.20;99.90
14359;DHT22;7263;49.418;11.064;2023-04-03T00:21:27;3.10;99.90
14359;DHT22;7263;49.418;11.064;2023-04-03T00:23:54;3.10;99.90
14359;DHT22;7263;49.418;11.064;2023-04-03T00:26:21;3.10;99.90
14359;DHT22;7263;49.418;11.064;2023-04-03T00:28:49;3.10;99.90
14359;DHT22;7263;49.418;11.064;2023-04-03T00:31:19;3.10;99.90
14359;DHT22;7263;49.418;11.064;2023-04-03T00:33:46;3.10;99.90
14359;DHT22;7263;49.418;11.064;2023-04-03T00:36:15;3.20;99.90
14359;DHT22;7263;49.418;11.064;2023-04-03T00:38:43;3.10;99.90
14359;DHT22;7263;49.418;11.064;2023-04-03T00:41:10;3.10;99.90
14359;DHT22;7263;49.418;11.064;2023-04-03T00:43:37;3.10;99.90
14359;DHT22;7263;49.418;11.064;2023-04-03T00:46:04;3.10;99.90
14359;DHT22;7263;49.418;11.064;2023-04-03T00:48:37;3.10;99.90
14359;DHT22;7263;49.418;11.064;2023-04-03T00:51:08;3.10;99.90
14359;DHT22;7263;49.418;11.064;2023-04-03T00:53:39;3.10;99.90
14359;DHT22;7263;49.418;11.064;2023-04-03T00:56:11;3.10;99.90
14359;DHT22;7263;49.418;11.064;2023-04-03T00:58:43;3.10;99.90
14359;DHT22;7263;49.418;11.064;2023-04-03T01:01:16;3.10;99.90
14359;DHT22;7263;49.418;11.064;2023-04-03T01:03:45;3.10;99.90
14359;DHT22;7263;49.418;11.064;2023-04-03T01:06:13;3.10;99.90
14359;DHT22;7263;49.418;11.064;2023-04-03T01:08:43;3.10;99.90
14359;DHT22;7263;49.418;11.064;2023-04-03T01:11:13;3.20;99.90
14359;DHT22;7263;49.418;11.064;2023-04-03T01:13:41;3.00;99.90
14359;DHT22;7263;49.418;11.064;2023-04-03T01:18:37;3.00;99.90
14359;DHT22;7263;49.418;11.064;2023-04-03T01:24:34;3.10;99.90
14359;DHT22;7263;49.418;11.064;2023-04-03T01:27:04;3.10;99.90
14359;DHT22;7263;49.418;11.064;2023-04-03T01:29:32;3.00;99.90
14359;DHT22;7263;49.418;11.064;2023-04-03T01:32:01;3.00;99.90
14359;DHT22;7263;49.418;11.064;2023-04-03T01:34:31;3.00;99.90
14359;DHT22;7263;49.418;11.064;2023-04-03T01:36:58;3.00;99.90
14359;DHT22;7263;49.418;11.064;2023-04-03T01:39:25;3.00;99.90
14359;DHT22;7263;49.418;11.064;2023-04-03T01:41:51;3.00;99.90
14359;DHT22;7263;49.418;11.064;2023-04-03T01:44:18;1.70;99.90
14359;DHT22;7263;49.418;11.064;2023-04-03T01:46:45;2.90;99.90
14359;DHT22;7263;49.418;11.064;2023-04-03T01:49:13;2.90;99.90
14359;DHT22;7263;49.418;11.064;2023-04-03T01:51:40;2.90;99.90
14359;DHT22;7263;49.418;11.064;2023-04-03T01:54:07;2.80;99.90
14359;DHT22;7263;49.418;11.064;2023-04-03T01:56:35;2.80;99.90
14359;DHT22;7263;49.418;11.064;2023-04-03T01:59:01;2.80;99.90
14359;DHT22;7263;49.418;11.064;2023-04-03T02:01:28;2.70;99.90
14359;DHT22;7263;49.418;11.064;2023-04-03T02:03:55;2.60;99.90
14359;DHT22;7263;49.418;11.064;2023-04-03T02:08:51;2.60;99.90
14359;DHT22;7263;49.418;11.064;2023-04-03T02:11:18;2.60;99.90
14359;DHT22;7263;49.418;11.064;2023-04-03T02:16:12;2.50;99.90
14359;DHT22;7263;49.418;11.064;2023-04-03T02:18:39;2.50;99.90
14359;DHT22;7263;49.418;11.064;2023-04-03T02:21:06;2.30;99.90
14359;DHT22;7263;49.418;11.064;2023-04-03T02:23:34;2.30;99.90
14359;DHT22;7263;49.418;11.064;2023-04-03T02:26:06;2.30;99.90
14359;DHT22;7263;49.418;11.064;2023-04-03T02:28:34;2.30;99.90
14359;DHT22;7263;49.418;11.064;2023-04-03T02:31:01;2.30;99.90
14359;DHT22;7263;49.418;11.064;2023-04-03T02:33:28;2.20;99.90
14359;DHT22;7263;49.418;11.064;2023-04-03T02:35:56;2.20;99.90
14359;DHT22;7263;49.418;11.064;2023-04-03T02:38:23;2.10;99.90
14359;DHT22;7263;49.418;11.064;2023-04-03T02:40:52;2.30;99.90
14359;DHT22;7263;49.418;11.064;2023-04-03T02:43:19;2.10;99.90
14359;DHT22;7263;49.418;11.064;2023-04-03T02:45:45;2.10;99.90
14359;DHT22;7263;49.418;11.064;2023-04-03T02:48:12;2.10;99.90
14359;DHT22;7263;49.418;11.064;2023-04-03T02:50:40;2.10;99.90
14359;DHT22;7263;49.418;11.064;2023-04-03T02:53:07;2.10;99.90
14359;DHT22;7263;49.418;11.064;2023-04-03T02:55:34;2.10;99.90
14359;DHT22;7263;49.418;11.064;2023-04-03T02:58:02;2.10;99.90
14359;DHT22;7263;49.418;11.064;2023-04-03T03:00:29;2.00;99.90
14359;DHT22;7263;49.418;11.064;2023-04-03T03:02:56;2.00;99.90
14359;DHT22;7263;49.418;11.064;2023-04-03T03:05:23;2.00;99.90
14359;DHT22;7263;49.418;11.064;2023-04-03T03:07:50;2.00;99.90
14359;DHT22;7263;49.418;11.064;2023-04-03T03:10:17;2.00;99.90
14359;DHT22;7263;49.418;11.064;2023-04-03T03:12:44;2.00;99.90
14359;DHT22;7263;49.418;11.064;2023-04-03T03:15:12;1.90;99.90
14359;DHT22;7263;49.418;11.064;2023-04-03T03:17:40;1.90;99.90
14359;DHT22;7263;49.418;11.064;2023-04-03T03:20:08;1.90;99.90
14359;DHT22;7263;49.418;11.064;2023-04-03T03:22:36;1.90;99.90
14359;DHT22;7263;49.418;11.064;2023-04-03T03:25:03;1.80;99.90
14359;DHT22;7263;49.418;11.064;2023-04-03T03:27:30;1.80;99.90
14359;DHT22;7263;49.418;11.064;2023-04-03T03:29:57;1.90;99.90
14359;DHT22;7263;49.418;11.064;2023-04-03T03:32:25;1.80;99.90
14359;DHT22;7263;49.418;11.064;2023-04-03T03:34:52;1.80;99.90
14359;DHT22;7263;49.418;11.064;2023-04-03T03:37:18;1.70;99.90
14359;DHT22;7263;49.418;11.064;2023-04-03T03:39:45;1.80;99.90
14359;DHT22;7263;49.418;11.064;2023-04-03T03:42:12;1.80;99.90
14359;DHT22;7263;49.418;11.064;2023-04-03T03:44:39;1.90;99.90
14359;DHT22;7263;49.418;11.064;2023-04-03T03:47:06;1.80;99.90
14359;DHT22;7263;49.418;11.064;2023-04-03T03:49:36;1.90;99.90
14359;DHT22;7263;49.418;11.064;2023-04-03T03:52:03;1.90;99.90
14359;DHT22;7263;49.418;11.064;2023-04-03T03:54:30;1.90;99.90
14359;DHT22;7263;49.418;11.064;2023-04-03T03:56:57;1.90;99.90
14359;DHT22;7263;49.418;11.064;2023-04-03T03:59:23;1.90;99.90
14359;DHT22;7263;49.418;11.064;2023-04-03T04:01:50;1.90;99.90
14359;DHT22;7263;49.418;11.064;2023-04-03T04:04:17;1.90;99.90
14359;DHT22;7263;49.418;11.064;2023-04-03T04:06:45;1.90;99.90
14359;DHT22;7263;49.418;11.064;2023-04-03T04:09:12;2.00;99.90
14359;DHT22;7263;49.418;11.064;2023-04-03T04:11:39;2.00;99.90
14359;DHT22;7263;49.418;11.064;2023-04-03T04:14:06;2.00;99.90
14359;DHT22;7263;49.418;11.064;2023-04-03T04:16:34;2.00;99.90
14359;DHT22;7263;49.418;11.064;2023-04-03T04:19:01;2.00;99.90
14359;DHT22;7263;49.418;11.064;2023-04-03T04:21:27;2.00;99.90
14359;DHT22;7263;49.418;11.064;2023-04-03T04:23:55;2.00;99.90
14359;DHT22;7263;49.418;11.064;2023-04-03T04:26:22;2.00;99.90
14359;DHT22;7263;49.418;11.064;2023-04-03T04:28:49;2.00;99.90
14359;DHT22;7263;49.418;11.064;2023-04-03T04:31:16;2.00;99.90
14359;DHT22;7263;49.418;11.064;2023-04-03T04:33:43;2.00;99.90
14359;DHT22;7263;49.418;11.064;2023-04-03T04:36:10;2.10;99.90
14359;DHT22;7263;49.418;11.064;2023-04-03T04:38:36;2.00;99.90
14359;DHT22;7263;49.418;11.064;2023-04-03T04:41:05;2.00;99.90
14359;DHT22;7263;49.418;11.064;2023-04-03T04:43:32;2.00;99.90
14359;DHT22;7263;49.418;11.064;2023-04-03T04:46:03;2.00;99.90
14359;DHT22;7263;49.418;11.064;2023-04-03T04:48:30;1.90;99.90
14359;DHT22;7263;49.418;11.064;2023-04-03T04:50:57;1.90;99.90
14359;DHT22;7263;49.418;11.064;2023-04-03T04:53:23;1.80;99.90
14359;DHT22;7263;49.418;11.064;2023-04-03T04:55:50;1.80;99.90
14359;DHT22;7263;49.418;11.064;2023-04-03T04:58:19;1.80;99.90
14359;DHT22;7263;49.418;11.064;2023-04-03T05:00:46;1.70;99.90
14359;DHT22;7263;49.418;11.064;2023-04-03T05:03:13;1.70;99.90
14359;DHT22;7263;49.418;11.064;2023-04-03T05:05:40;1.70;99.90
14359;DHT22;7263;49.418;11.064;2023-04-03T05:08:07;1.70;99.90
14359;DHT22;7263;49.418;11.064;2023-04-03T05:10:34;1.70;99.90
14359;DHT22;7263;49.418;11.064;2023-04-03T05:13:01;1.70;99.90
14359;DHT22;7263;49.418;11.064;2023-04-03T05:15:29;1.70;99.90
14359;DHT22;7263;49.418;11.064;2023-04-03T05:17:56;1.80;99.90
14359;DHT22;7263;49.418;11.064;2023-04-03T05:20:22;1.80;99.90
14359;DHT22;7263;49.418;11.064;2023-04-03T05:22:49;1.80;99.90
14359;DHT22;7263;49.418;11.064;2023-04-03T05:25:16;1.70;99.90
14359;DHT22;7263;49.418;11.064;2023-04-03T05:27:43;1.80;99.90
14359;DHT22;7263;49.418;11.064;2023-04-03T05:30:11;1.80;99.90
14359;DHT22;7263;49.418;11.064;2023-04-03T05:32:39;1.80;99.90
14359;DHT22;7263;49.418;11.064;2023-04-03T05:35:07;1.80;99.90
14359;DHT22;7263;49.418;11.064;2023-04-03T05:37:34;1.90;99.90
14359;DHT22;7263;49.418;11.064;2023-04-03T05:40:01;1.90;99.90
14359;DHT22;7263;49.418;11.064;2023-04-03T05:42:27;2.00;99.90
14359;DHT22;7263;49.418;11.064;2023-04-03T05:44:55;2.00;99.90
14359;DHT22;7263;49.418;11.064;2023-04-03T05:47:22;2.00;99.90
14359;DHT22;7263;49.418;11.064;2023-04-03T05:49:50;2.00;99.90
14359;DHT22;7263;49.418;11.064;2023-04-03T05:52:21;2.10;99.90
14359;DHT22;7263;49.418;11.064;2023-04-03T05:54:48;2.10;99.90
14359;DHT22;7263;49.418;11.064;2023-04-03T05:57:15;2.10;99.90
14359;DHT22;7263;49.418;11.064;2023-04-03T05:59:42;2.10;99.90
14359;DHT22;7263;49.418;11.064;2023-04-03T06:02:10;2.20;99.90
14359;DHT22;7263;49.418;11.064;2023-04-03T06:04:37;2.20;99.90
14359;DHT22;7263;49.418;11.064;2023-04-03T06:07:06;2.20;99.90
14359;DHT22;7263;49.418;11.064;2023-04-03T06:09:33;2.30;99.90
14359;DHT22;7263;49.418;11.064;2023-04-03T06:12:00;2.20;99.90
14359;DHT22;7263;49.418;11.064;2023-04-03T06:14:27;2.30;99.90
14359;DHT22;7263;49.418;11.064;2023-04-03T06:16:54;2.30;99.90
14359;DHT22;7263;49.418;11.064;2023-04-03T06:19:21;2.40;99.90
14359;DHT22;7263;49.418;11.064;2023-04-03T06:21:48;2.40;99.90
14359;DHT22;7263;49.418;11.064;2023-04-03T06:24:17;2.50;99.90
14359;DHT22;7263;49.418;11.064;2023-04-03T06:26:45;2.50;99.90
14359;DHT22;7263;49.418;11.064;2023-04-03T06:29:12;2.50;99.90
14359;DHT22;7263;49.418;11.064;2023-04-03T06:31:39;2.60;99.90
14359;DHT22;7263;49.418;11.064;2023-04-03T06:34:06;2.60;99.90
14359;DHT22;7263;49.418;11.064;2023-04-03T06:36:33;2.60;99.90
14359;DHT22;7263;49.418;11.064;2023-04-03T06:39:00;2.70;99.90
14359;DHT22;7263;49.418;11.064;2023-04-03T06:41:28;2.80;99.90
14359;DHT22;7263;49.418;11.064;2023-04-03T06:43:55;2.70;99.90
14359;DHT22;7263;49.418;11.064;2023-04-03T06:46:24;2.70;99.90
14359;DHT22;7263;49.418;11.064;2023-04-03T06:48:52;2.70;99.90
14359;DHT22;7263;49.418;11.064;2023-04-03T06:51:21;2.80;99.90
14359;DHT22;7263;49.418;11.064;2023-04-03T06:53:49;2.80;99.90
14359;DHT22;7263;49.418;11.064;2023-04-03T06:56:16;2.90;99.90
14359;DHT22;7263;49.418;11.064;2023-04-03T06:58:45;2.90;99.90
14359;DHT22;7263;49.418;11.064;2023-04-03T07:01:13;3.00;99.90
14359;DHT22;7263;49.418;11.064;2023-04-03T07:03:40;3.00;99.90
14359;DHT22;7263;49.418;11.064;2023-04-03T07:06:09;3.10;99.90
14359;DHT22;7263;49.418;11.064;2023-04-03T07:08:37;3.30;99.90
14359;DHT22;7263;49.418;11.064;2023-04-03T07:11:05;3.40;99.90
14359;DHT22;7263;49.418;11.064;2023-04-03T07:13:32;3.50;99.90
14359;DHT22;7263;49.418;11.064;2023-04-03T07:16:00;3.50;99.90
14359;DHT22;7263;49.418;11.064;2023-04-03T07:18:29;3.40;99.90
14359;DHT22;7263;49.418;11.064;2023-04-03T07:20:56;3.50;99.90
14359;DHT22;7263;49.418;11.064;2023-04-03T07:23:23;3.60;99.90
14359;DHT22;7263;49.418;11.064;2023-04-03T07:25:51;3.80;99.90
14359;DHT22;7263;49.418;11.064;2023-04-03T07:28:19;3.90;99.90
14359;DHT22;7263;49.418;11.064;2023-04-03T07:30:48;3.80;99.90
14359;DHT22;7263;49.418;11.064;2023-04-03T07:33:18;3.80;99.90
14359;DHT22;7263;49.418;11.064;2023-04-03T07:35:45;3.90;99.90
14359;DHT22;7263;49.418;11.064;2023-04-03T07:38:13;4.00;99.90
14359;DHT22;7263;49.418;11.064;2023-04-03T07:40:40;3.90;99.90
14359;DHT22;7263;49.418;11.064;2023-04-03T07:43:11;3.90;99.90
14359;DHT22;7263;49.418;11.064;2023-04-03T07:45:38;3.80;99.90
14359;DHT22;7263;49.418;11.064;2023-04-03T07:48:05;3.80;99.90
14359;DHT22;7263;49.418;11.064;2023-04-03T07:50:33;3.80;99.90
14359;DHT22;7263;49.418;11.064;2023-04-03T07:53:01;3.90;99.90
14359;DHT22;7263;49.418;11.064;2023-04-03T07:55:28;3.90;99.90
14359;DHT22;7263;49.418;11.064;2023-04-03T07:57:55;4.20;99.90
14359;DHT22;7263;49.418;11.064;2023-04-03T08:00:22;4.20;99.90
14359;DHT22;7263;49.418;11.064;2023-04-03T08:02:49;4.30;99.90
14359;DHT22;7263;49.418;11.064;2023-04-03T08:05:17;4.20;99.90
14359;DHT22;7263;49.418;11.064;2023-04-03T08:07:46;4.20;99.90
14359;DHT22;7263;49.418;11.064;2023-04-03T08:10:13;4.20;99.90
14359;DHT22;7263;49.418;11.064;2023-04-03T08:12:41;4.30;99.90
14359;DHT22;7263;49.418;11.064;2023-04-03T08:15:08;4.40;99.90
14359;DHT22;7263;49.418;11.064;2023-04-03T08:17:35;4.50;99.90
14359;DHT22;7263;49.418;11.064;2023-04-03T08:20:03;4.40;99.90
14359;DHT22;7263;49.418;11.064;2023-04-03T08:22:31;4.60;99.90
14359;DHT22;7263;49.418;11.064;2023-04-03T08:25:00;4.60;99.90
14359;DHT22;7263;49.418;11.064;2023-04-03T08:27:27;4.80;99.90
14359;DHT22;7263;49.418;11.064;2023-04-03T08:29:54;4.70;99.90
14359;DHT22;7263;49.418;11.064;2023-04-03T08:32:22;4.70;99.90
14359;DHT22;7263;49.418;11.064;2023-04-03T08:34:49;4.90;99.90
14359;DHT22;7263;49.418;11.064;2023-04-03T08:37:16;5.10;99.90
14359;DHT22;7263;49.418;11.064;2023-04-03T08:39:43;5.10;99.90
14359;DHT22;7263;49.418;11.064;2023-04-03T08:42:16;4.80;99.90
14359;DHT22;7263;49.418;11.064;2023-04-03T08:44:49;4.90;99.90
14359;DHT22;7263;49.418;11.064;2023-04-03T08:47:23;5.10;99.90
14359;DHT22;7263;49.418;11.064;2023-04-03T08:49:52;5.20;99.90
14359;DHT22;7263;49.418;11.064;2023-04-03T08:52:23;5.50;99.90
14359;DHT22;7263;49.418;11.064;2023-04-03T08:54:53;5.50;99.90
14359;DHT22;7263;49.418;11.064;2023-04-03T08:57:28;5.70;99.90
14359;DHT22;7263;49.418;11.064;2023-04-03T08:59:57;5.90;99.90
14359;DHT22;7263;49.418;11.064;2023-04-03T09:02:27;6.80;99.90
14359;DHT22;7263;49.418;11.064;2023-04-03T09:04:55;6.90;99.90
14359;DHT22;7263;49.418;11.064;2023-04-03T09:07:30;6.40;99.90
14359;DHT22;7263;49.418;11.064;2023-04-03T09:09:59;6.10;99.90
14359;DHT22;7263;49.418;11.064;2023-04-03T09:12:33;5.90;99.90
14359;DHT22;7263;49.418;11.064;2023-04-03T09:15:09;5.90;99.90
14359;DHT22;7263;49.418;11.064;2023-04-03T09:17:44;5.90;99.90
14359;DHT22;7263;49.418;11.064;2023-04-03T09:20:21;5.50;99.90
14359;DHT22;7263;49.418;11.064;2023-04-03T09:22:51;5.30;99.90
14359;DHT22;7263;49.418;11.064;2023-04-03T09:25:22;5.10;99.90
14359;DHT22;7263;49.418;11.064;2023-04-03T09:27:51;5.20;99.90
14359;DHT22;7263;49.418;11.064;2023-04-03T09:30:20;5.20;99.90
14359;DHT22;7263;49.418;11.064;2023-04-03T09:32:49;5.10;99.90
14359;DHT22;7263;49.418;11.064;2023-04-03T09:35:21;5.00;99.90
14359;DHT22;7263;49.418;11.064;2023-04-03T09:37:49;5.00;99.90
14359;DHT22;7263;49.418;11.064;2023-04-03T09:40:35;5.00;99.90
14359;DHT22;7263;49.418;11.064;2023-04-03T09:43:21;5.10;99.90
14359;DHT22;7263;49.418;11.064;2023-04-03T09:45:49;5.00;99.90
14359;DHT22;7263;49.418;11.064;2023-04-03T09:48:18;5.10;99.90
14359;DHT22;7263;49.418;11.064;2023-04-03T09:50:54;5.10;99.90
14359;DHT22;7263;49.418;11.064;2023-04-03T09:53:35;5.20;99.90
14359;DHT22;7263;49.418;11.064;2023-04-03T09:56:05;5.20;99.90
14359;DHT22;7263;49.418;11.064;2023-04-03T09:58:47;5.20;99.90
14359;DHT22;7263;49.418;11.064;2023-04-03T10:01:26;5.30;99.90
14359;DHT22;7263;49.418;11.064;2023-04-03T10:04:05;5.40;99.90
14359;DHT22;7263;49.418;11.064;2023-04-03T10:06:34;5.40;99.90
14359;DHT22;7263;49.418;11.064;2023-04-03T10:09:04;5.70;99.90
14359;DHT22;7263;49.418;11.064;2023-04-03T10:11:31;5.80;99.90
14359;DHT22;7263;49.418;11.064;2023-04-03T10:14:00;5.90;99.90
14359;DHT22;7263;49.418;11.064;2023-04-03T10:16:34;5.70;99.90
14359;DHT22;7263;49.418;11.064;2023-04-03T10:22:12;5.60;99.90
14359;DHT22;7263;49.418;11.064;2023-04-03T10:24:50;5.70;99.90
14359;DHT22;7263;49.418;11.064;2023-04-03T10:27:25;6.10;99.90
14359;DHT22;7263;49.418;11.064;2023-04-03T10:29:59;7.00;99.90
14359;DHT22;7263;49.418;11.064;2023-04-03T10:32:51;5.80;99.90
14359;DHT22;7263;49.418;11.064;2023-04-03T10:35:28;5.80;99.90
14359;DHT22;7263;49.418;11.064;2023-04-03T10:38:04;5.60;99.90
14359;DHT22;7263;49.418;11.064;2023-04-03T10:40:39;5.70;99.90
14359;DHT22;7263;49.418;11.064;2023-04-03T10:43:16;6.30;99.90
14359;DHT22;7263;49.418;11.064;2023-04-03T10:46:00;6.50;99.60
14359;DHT22;7263;49.418;11.064;2023-04-03T10:48:36;6.40;99.90
14359;DHT22;7263;49.418;11.064;2023-04-03T10:51:12;6.20;99.40
14359;DHT22;7263;49.418;11.064;2023-04-03T10:53:45;6.20;99.70
14359;DHT22;7263;49.418;11.064;2023-04-03T10:56:18;6.20;99.90
14359;DHT22;7263;49.418;11.064;2023-04-03T10:58:50;6.40;99.40
14359;DHT22;7263;49.418;11.064;2023-04-03T11:01:24;6.10;99.30
14359;DHT22;7263;49.418;11.064;2023-04-03T11:03:56;5.90;98.30
14359;DHT22;7263;49.418;11.064;2023-04-03T11:06:26;6.00;98.40
14359;DHT22;7263;49.418;11.064;2023-04-03T11:08:57;6.00;97.50
14359;DHT22;7263;49.418;11.064;2023-04-03T11:11:31;6.00;98.80
14359;DHT22;7263;49.418;11.064;2023-04-03T11:14:02;6.30;97.60
14359;DHT22;7263;49.418;11.064;2023-04-03T11:16:33;6.60;97.90
14359;DHT22;7263;49.418;11.064;2023-04-03T11:19:03;7.10;98.10
14359;DHT22;7263;49.418;11.064;2023-04-03T11:21:34;7.20;97.60
14359;DHT22;7263;49.418;11.064;2023-04-03T11:24:05;7.20;97.30
14359;DHT22;7263;49.418;11.064;2023-04-03T11:26:39;6.80;96.50
14359;DHT22;7263;49.418;11.064;2023-04-03T11:29:10;6.60;97.50
14359;DHT22;7263;49.418;11.064;2023-04-03T11:31:56;6.60;95.40
14359;DHT22;7263;49.418;11.064;2023-04-03T11:34:33;6.50;94.80
14359;DHT22;7263;49.418;11.064;2023-04-03T11:37:05;6.70;94.60
14359;DHT22;7263;49.418;11.064;2023-04-03T11:39:38;7.30;94.30
14359;DHT22;7263;49.418;11.064;2023-04-03T11:42:17;7.40;94.50
14359;DHT22;7263;49.418;11.064;2023-04-03T11:44:49;7.10;93.10
14359;DHT22;7263;49.418;11.064;2023-04-03T11:47:45;6.80;94.00
14359;DHT22;7263;49.418;11.064;2023-04-03T11:50:40;6.60;92.60
14359;DHT22;7263;49.418;11.064;2023-04-03T11:53:28;6.70;92.40
14359;DHT22;7263;49.418;11.064;2023-04-03T11:56:04;6.50;92.20
14359;DHT22;7263;49.418;11.064;2023-04-03T11:58:32;6.50;92.00
14359;DHT22;7263;49.418;11.064;2023-04-03T12:01:10;6.40;92.30
14359;DHT22;7263;49.418;11.064;2023-04-03T12:10:12;6.90;91.90
14359;DHT22;7263;49.418;11.064;2023-04-03T12:12:42;7.40;92.00
14359;DHT22;7263;49.418;11.064;2023-04-03T12:21:19;7.60;88.90
14359;DHT22;7263;49.418;11.064;2023-04-03T12:24:02;7.20;90.10
14359;DHT22;7263;49.418;11.064;2023-04-03T12:26:36;6.70;89.10
14359;DHT22;7263;49.418;11.064;2023-04-03T12:29:15;6.50;88.70
14359;DHT22;7263;49.418;11.064;2023-04-03T12:31:54;6.50;89.80
14359;DHT22;7263;49.418;11.064;2023-04-03T12:34:37;6.50;90.80
14359;DHT22;7263;49.418;11.064;2023-04-03T12:37:09;6.70;91.60
14359;DHT22;7263;49.418;11.064;2023-04-03T12:39:52;6.80;92.70
14359;DHT22;7263;49.418;11.064;2023-04-03T12:42:35;6.40;92.10
14359;DHT22;7263;49.418;11.064;2023-04-03T12:45:16;6.40;92.30
14359;DHT22;7263;49.418;11.064;2023-04-03T12:47:44;6.40;94.00
14359;DHT22;7263;49.418;11.064;2023-04-03T12:50:21;6.40;94.50
14359;DHT22;7263;49.418;11.064;2023-04-03T12:52:54;6.80;95.30
14359;DHT22;7263;49.418;11.064;2023-04-03T12:55:22;7.10;95.00
14359;DHT22;7263;49.418;11.064;2023-04-03T12:57:51;7.50;94.30
14359;DHT22;7263;49.418;11.064;2023-04-03T13:00:30;7.30;93.60
14359;DHT22;7263;49.418;11.064;2023-04-03T13:02:58;6.90;93.40
14359;DHT22;7263;49.418;11.064;2023-04-03T13:05:25;6.70;93.10
14359;DHT22;7263;49.418;11.064;2023-04-03T13:07:56;6.70;93.80
14359;DHT22;7263;49.418;11.064;2023-04-03T13:10:24;6.60;93.20
14359;DHT22;7263;49.418;11.064;2023-04-03T13:12:54;6.40;93.60
14359;DHT22;7263;49.418;11.064;2023-04-03T13:15:23;6.30;93.50
14359;DHT22;7263;49.418;11.064;2023-04-03T13:17:51;6.30;93.90
14359;DHT22;7263;49.418;11.064;2023-04-03T13:20:21;6.50;94.60
14359;DHT22;7263;49.418;11.064;2023-04-03T13:22:52;6.70;94.60
14359;DHT22;7263;49.418;11.064;2023-04-03T13:25:21;6.70;94.40
14359;DHT22;7263;49.418;11.064;2023-04-03T13:27:49;6.90;95.00
14359;DHT22;7263;49.418;11.064;2023-04-03T13:30:23;6.90;94.40
14359;DHT22;7263;49.418;11.064;2023-04-03T13:32:51;6.80;94.90
14359;DHT22;7263;49.418;11.064;2023-04-03T13:35:28;6.60;95.00
14359;DHT22;7263;49.418;11.064;2023-04-03T13:37:56;6.50;94.10
14359;DHT22;7263;49.418;11.064;2023-04-03T13:40:23;6.50;94.80
14359;DHT22;7263;49.418;11.064;2023-04-03T13:42:59;6.60;93.80
14359;DHT22;7263;49.418;11.064;2023-04-03T13:45:29;6.70;94.10
14359;DHT22;7263;49.418;11.064;2023-04-03T13:48:16;6.90;94.00
14359;DHT22;7263;49.418;11.064;2023-04-03T13:51:05;6.80;93.10
14359;DHT22;7263;49.418;11.064;2023-04-03T13:53:40;6.70;92.30
14359;DHT22;7263;49.418;11.064;2023-04-03T13:56:09;6.80;93.10
14359;DHT22;7263;49.418;11.064;2023-04-03T13:58:58;6.80;93.50
14359;DHT22;7263;49.418;11.064;2023-04-03T14:01:42;6.80;93.80
14359;DHT22;7263;49.418;11.064;2023-04-03T14:04:14;6.50;93.70
14359;DHT22;7263;49.418;11.064;2023-04-03T14:06:42;6.50;94.00
14359;DHT22;7263;49.418;11.064;2023-04-03T14:09:09;6.50;94.60
14359;DHT22;7263;49.418;11.064;2023-04-03T14:11:36;6.60;95.00
14359;DHT22;7263;49.418;11.064;2023-04-03T14:14:09;6.90;94.60
14359;DHT22;7263;49.418;11.064;2023-04-03T14:16:41;6.70;94.30
14359;DHT22;7263;49.418;11.064;2023-04-03T14:19:17;6.80;94.00
14359;DHT22;7263;49.418;11.064;2023-04-03T14:21:44;6.90;94.70
14359;DHT22;7263;49.418;11.064;2023-04-03T14:24:11;6.90;93.10
14359;DHT22;7263;49.418;11.064;2023-04-03T14:26:38;6.70;93.50
14359;DHT22;7263;49.418;11.064;2023-04-03T14:29:05;6.50;94.00
14359;DHT22;7263;49.418;11.064;2023-04-03T14:31:32;6.50;93.80
14359;DHT22;7263;49.418;11.064;2023-04-03T14:34:00;7.00;94.30
14359;DHT22;7263;49.418;11.064;2023-04-03T14:36:28;6.50;92.60
14359;DHT22;7263;49.418;11.064;2023-04-03T14:38:56;6.30;93.10
14359;DHT22;7263;49.418;11.064;2023-04-03T14:41:24;6.30;93.80
14359;DHT22;7263;49.418;11.064;2023-04-03T14:43:52;6.20;94.30
14359;DHT22;7263;49.418;11.064;2023-04-03T14:46:23;6.20;94.60
14359;DHT22;7263;49.418;11.064;2023-04-03T14:48:52;6.30;94.50
14359;DHT22;7263;49.418;11.064;2023-04-03T14:51:20;6.40;93.90
14359;DHT22;7263;49.418;11.064;2023-04-03T14:53:47;6.40;93.50
14359;DHT22;7263;49.418;11.064;2023-04-03T14:56:17;6.50;93.30
14359;DHT22;7263;49.418;11.064;2023-04-03T14:58:47;6.60;93.00
14359;DHT22;7263;49.418;11.064;2023-04-03T15:01:16;6.40;92.50
14359;DHT22;7263;49.418;11.064;2023-04-03T15:03:43;6.30;93.00
14359;DHT22;7263;49.418;11.064;2023-04-03T15:06:10;6.30;93.00
14359;DHT22;7263;49.418;11.064;2023-04-03T15:08:39;6.50;94.00
14359;DHT22;7263;49.418;11.064;2023-04-03T15:11:08;6.60;93.60
14359;DHT22;7263;49.418;11.064;2023-04-03T15:13:35;6.60;93.50
14359;DHT22;7263;49.418;11.064;2023-04-03T15:16:02;6.70;93.20
14359;DHT22;7263;49.418;11.064;2023-04-03T15:18:34;6.70;93.50
14359;DHT22;7263;49.418;11.064;2023-04-03T15:21:02;6.80;93.20
14359;DHT22;7263;49.418;11.064;2023-04-03T15:23:29;6.50;93.00
14359;DHT22;7263;49.418;11.064;2023-04-03T15:25:57;6.30;93.30
14359;DHT22;7263;49.418;11.064;2023-04-03T15:28:28;6.10;93.40
14359;DHT22;7263;49.418;11.064;2023-04-03T15:30:56;6.10;93.40
14359;DHT22;7263;49.418;11.064;2023-04-03T15:33:23;6.10;93.70
14359;DHT22;7263;49.418;11.064;2023-04-03T15:35:50;5.90;93.40
14359;DHT22;7263;49.418;11.064;2023-04-03T15:38:17;5.90;94.00
14359;DHT22;7263;49.418;11.064;2023-04-03T15:40:43;5.90;93.80
14359;DHT22;7263;49.418;11.064;2023-04-03T15:43:14;5.90;94.00
14359;DHT22;7263;49.418;11.064;2023-04-03T15:45:41;6.00;93.60
14359;DHT22;7263;49.418;11.064;2023-04-03T15:48:10;6.00;93.20
14359;DHT22;7263;49.418;11.064;2023-04-03T15:50:38;6.00;94.20
14359;DHT22;7263;49.418;11.064;2023-04-03T15:53:05;6.00;94.40
14359;DHT22;7263;49.418;11.064;2023-04-03T15:55:35;6.00;94.00
14359;DHT22;7263;49.418;11.064;2023-04-03T15:58:02;5.90;93.80
14359;DHT22;7263;49.418;11.064;2023-04-03T16:00:32;5.80;94.10
14359;DHT22;7263;49.418;11.064;2023-04-03T16:03:02;5.60;93.30
14359;DHT22;7263;49.418;11.064;2023-04-03T16:05:31;5.60;93.80
14359;DHT22;7263;49.418;11.064;2023-04-03T16:07:59;5.50;93.80
14359;DHT22;7263;49.418;11.064;2023-04-03T16:10:26;5.50;93.90
14359;DHT22;7263;49.418;11.064;2023-04-03T16:12:53;5.60;93.90
14359;DHT22;7263;49.418;11.064;2023-04-03T16:15:20;5.60;94.50
14359;DHT22;7263;49.418;11.064;2023-04-03T16:17:48;5.70;94.50
14359;DHT22;7263;49.418;11.064;2023-04-03T16:20:15;5.50;94.30
14359;DHT22;7263;49.418;11.064;2023-04-03T16:22:43;5.50;94.00
14359;DHT22;7263;49.418;11.064;2023-04-03T16:25:11;5.40;94.10
14359;DHT22;7263;49.418;11.064;2023-04-03T16:27:38;5.40;94.40
14359;DHT22;7263;49.418;11.064;2023-04-03T16:30:06;5.40;94.30